sensor_id;sensor_type;location;lat;lon;timestamp;pressure;altitude;pressure_sealevel;temperature;humidity
73453;BME280;61687;56.232;43.854;2023-05-16T00:00:53;101514.00;;;6.85;75.26
73453;BME280;61687;56.232;43.854;2023-05-16T00:03:19;101513.19;;;6.84;75.28
73453;BME280;61687;56.232;43.854;2023-05-16T00:05:46;101518.16;;;6.82;75.44
73453;BME280;61687;56.232;43.854;2023-05-16T00:08:12;101516.53;;;6.81;75.39
73453;BME280;61687;56.232;43.854;2023-05-16T00:10:39;101510.47;;;6.84;75.36
73453;BME280;61687;56.232;43.854;2023-05-16T00:13:05;101523.94;;;6.90;75.15
73453;BME280;61687;56.232;43.854;2023-05-16T00:15:31;101526.03;;;6.84;75.32
73453;BME280;61687;56.232;43.854;2023-05-16T00:17:58;101528.84;;;6.79;75.41
73453;BME280;61687;56.232;43.854;2023-05-16T00:20:25;101525.66;;;6.77;75.35
73453;BME280;61687;56.232;43.854;2023-05-16T00:22:53;101532.69;;;6.78;75.42
73453;BME280;61687;56.232;43.854;2023-05-16T00:25:19;101537.16;;;6.73;75.35
73453;BME280;61687;56.232;43.854;2023-05-16T00:27:46;101531.56;;;6.70;75.51
73453;BME280;61687;56.232;43.854;2023-05-16T00:30:12;101531.03;;;6.68;75.54
73453;BME280;61687;56.232;43.854;2023-05-16T00:32:38;101536.47;;;6.68;75.59
73453;BME280;61687;56.232;43.854;2023-05-16T00:35:06;101539.81;;;6.65;75.73
73453;BME280;61687;56.232;43.854;2023-05-16T00:37:35;101537.09;;;6.65;75.70
73453;BME280;61687;56.232;43.854;2023-05-16T00:40:01;101542.88;;;6.63;75.58
73453;BME280;61687;56.232;43.854;2023-05-16T00:42:27;101546.72;;;6.62;75.78
73453;BME280;61687;56.232;43.854;2023-05-16T00:44:53;101544.91;;;6.57;75.68
73453;BME280;61687;56.232;43.854;2023-05-16T00:47:19;101544.09;;;6.57;75.78
73453;BME280;61687;56.232;43.854;2023-05-16T00:49:45;101551.19;;;6.58;75.67
73453;BME280;61687;56.232;43.854;2023-05-16T00:52:11;101556.94;;;6.56;75.70
73453;BME280;61687;56.232;43.854;2023-05-16T00:54:39;101551.91;;;6.50;75.85
73453;BME280;61687;56.232;43.854;2023-05-16T00:57:05;101554.34;;;6.51;75.70
73453;BME280;61687;56.232;43.854;2023-05-16T00:59:31;101561.38;;;6.52;75.69
73453;BME280;61687;56.232;43.854;2023-05-16T01:01:58;101563.72;;;6.45;76.08
73453;BME280;61687;56.232;43.854;2023-05-16T01:04:24;101560.41;;;6.48;75.87
73453;BME280;61687;56.232;43.854;2023-05-16T01:06:55;101567.25;;;6.46;76.15
73453;BME280;61687;56.232;43.854;2023-05-16T01:09:21;101563.41;;;6.47;75.91
73453;BME280;61687;56.232;43.854;2023-05-16T01:20:32;101572.44;;;6.56;75.92
73453;BME280;61687;56.232;43.854;2023-05-16T01:23:32;101577.59;;;6.57;75.57
73453;BME280;61687;56.232;43.854;2023-05-16T01:26:16;101576.00;;;6.56;75.61
73453;BME280;61687;56.232;43.854;2023-05-16T01:28:45;101579.13;;;6.50;75.79
73453;BME280;61687;56.232;43.854;2023-05-16T01:31:11;101584.09;;;6.48;75.78
73453;BME280;61687;56.232;43.854;2023-05-16T01:33:37;101590.53;;;6.52;75.69
73453;BME280;61687;56.232;43.854;2023-05-16T01:36:34;101592.63;;;6.55;75.77
73453;BME280;61687;56.232;43.854;2023-05-16T01:42:14;101602.47;;;6.65;75.81
73453;BME280;61687;56.232;43.854;2023-05-16T01:45:01;101602.06;;;6.71;75.50
73453;BME280;61687;56.232;43.854;2023-05-16T01:47:33;101594.72;;;6.72;75.32
73453;BME280;61687;56.232;43.854;2023-05-16T01:52:39;101598.91;;;6.78;75.40
73453;BME280;61687;56.232;43.854;2023-05-16T01:55:15;101602.13;;;6.80;75.48
73453;BME280;61687;56.232;43.854;2023-05-16T01:57:42;101603.94;;;6.85;75.53
73453;BME280;61687;56.232;43.854;2023-05-16T02:00:11;101602.81;;;6.86;75.45
73453;BME280;61687;56.232;43.854;2023-05-16T02:02:40;101607.50;;;6.94;75.43
73453;BME280;61687;56.232;43.854;2023-05-16T02:05:08;101613.03;;;7.03;75.25
73453;BME280;61687;56.232;43.854;2023-05-16T02:07:35;101604.41;;;7.10;74.98
73453;BME280;61687;56.232;43.854;2023-05-16T02:10:02;101608.94;;;7.14;75.24
73453;BME280;61687;56.232;43.854;2023-05-16T02:12:30;101613.13;;;7.21;75.12
73453;BME280;61687;56.232;43.854;2023-05-16T02:14:56;101615.72;;;7.26;75.17
73453;BME280;61687;56.232;43.854;2023-05-16T02:17:22;101618.50;;;7.35;75.04
73453;BME280;61687;56.232;43.854;2023-05-16T02:19:48;101620.47;;;7.43;74.81
73453;BME280;61687;56.232;43.854;2023-05-16T02:22:14;101622.44;;;7.51;74.72
73453;BME280;61687;56.232;43.854;2023-05-16T02:24:40;101632.28;;;7.61;74.61
73453;BME280;61687;56.232;43.854;2023-05-16T02:27:06;101631.50;;;7.69;74.39
73453;BME280;61687;56.232;43.854;2023-05-16T02:29:32;101632.97;;;7.84;74.42
73453;BME280;61687;56.232;43.854;2023-05-16T02:31:58;101629.16;;;7.94;74.17
73453;BME280;61687;56.232;43.854;2023-05-16T02:34:24;101621.81;;;8.04;73.36
73453;BME280;61687;56.232;43.854;2023-05-16T02:36:50;101627.78;;;8.14;73.20
73453;BME280;61687;56.232;43.854;2023-05-16T02:39:16;101630.53;;;8.23;72.86
73453;BME280;61687;56.232;43.854;2023-05-16T02:41:42;101623.16;;;8.33;72.74
73453;BME280;61687;56.232;43.854;2023-05-16T02:44:08;101618.50;;;8.42;72.60
73453;BME280;61687;56.232;43.854;2023-05-16T02:46:34;101616.31;;;8.53;72.60
73453;BME280;61687;56.232;43.854;2023-05-16T02:49:03;101613.56;;;8.62;72.58
73453;BME280;61687;56.232;43.854;2023-05-16T02:51:29;101614.38;;;8.71;72.85
73453;BME280;61687;56.232;43.854;2023-05-16T02:53:56;101608.06;;;8.79;72.30
73453;BME280;61687;56.232;43.854;2023-05-16T02:56:24;101609.38;;;8.91;72.13
73453;BME280;61687;56.232;43.854;2023-05-16T02:58:52;101608.38;;;9.04;71.88
73453;BME280;61687;56.232;43.854;2023-05-16T03:01:19;101616.88;;;9.20;71.54
73453;BME280;61687;56.232;43.854;2023-05-16T03:03:45;101614.25;;;9.33;71.15
73453;BME280;61687;56.232;43.854;2023-05-16T03:06:11;101615.97;;;9.46;70.73
73453;BME280;61687;56.232;43.854;2023-05-16T03:08:37;101606.28;;;9.57;70.42
73453;BME280;61687;56.232;43.854;2023-05-16T03:11:03;101610.25;;;9.69;70.14
73453;BME280;61687;56.232;43.854;2023-05-16T03:13:29;101608.41;;;9.82;69.84
73453;BME280;61687;56.232;43.854;2023-05-16T03:15:58;101619.13;;;9.96;69.36
73453;BME280;61687;56.232;43.854;2023-05-16T03:18:25;101614.56;;;10.09;68.92
73453;BME280;61687;56.232;43.854;2023-05-16T03:20:51;101616.72;;;10.24;68.62
73453;BME280;61687;56.232;43.854;2023-05-16T03:23:21;101618.88;;;10.40;68.23
73453;BME280;61687;56.232;43.854;2023-05-16T03:25:48;101629.94;;;10.52;67.63
73453;BME280;61687;56.232;43.854;2023-05-16T03:28:16;101622.44;;;10.62;67.27
73453;BME280;61687;56.232;43.854;2023-05-16T03:30:42;101617.81;;;10.74;66.92
73453;BME280;61687;56.232;43.854;2023-05-16T03:33:08;101618.44;;;10.93;66.54
73453;BME280;61687;56.232;43.854;2023-05-16T03:35:35;101621.59;;;11.04;66.31
73453;BME280;61687;56.232;43.854;2023-05-16T03:38:02;101621.28;;;11.18;65.73
73453;BME280;61687;56.232;43.854;2023-05-16T03:40:28;101620.97;;;11.31;65.08
73453;BME280;61687;56.232;43.854;2023-05-16T03:42:54;101626.13;;;11.45;64.62
73453;BME280;61687;56.232;43.854;2023-05-16T03:45:20;101622.72;;;11.61;63.73
73453;BME280;61687;56.232;43.854;2023-05-16T03:47:48;101628.78;;;11.79;63.29
73453;BME280;61687;56.232;43.854;2023-05-16T03:50:14;101627.66;;;11.93;63.00
73453;BME280;61687;56.232;43.854;2023-05-16T03:52:41;101614.03;;;12.09;62.66
73453;BME280;61687;56.232;43.854;2023-05-16T03:55:07;101617.22;;;12.23;61.91
73453;BME280;61687;56.232;43.854;2023-05-16T03:57:35;101611.00;;;12.39;61.67
73453;BME280;61687;56.232;43.854;2023-05-16T04:00:03;101617.81;;;12.57;61.50
73453;BME280;61687;56.232;43.854;2023-05-16T04:02:40;101613.19;;;12.74;61.22
73453;BME280;61687;56.232;43.854;2023-05-16T04:05:09;101611.28;;;12.91;60.50
73453;BME280;61687;56.232;43.854;2023-05-16T04:07:38;101616.09;;;13.10;59.92
73453;BME280;61687;56.232;43.854;2023-05-16T04:10:05;101609.47;;;13.27;58.86
73453;BME280;61687;56.232;43.854;2023-05-16T04:12:32;101603.53;;;13.41;58.11
73453;BME280;61687;56.232;43.854;2023-05-16T04:14:58;101610.50;;;13.51;56.42
73453;BME280;61687;56.232;43.854;2023-05-16T04:17:24;101613.56;;;13.65;55.81
73453;BME280;61687;56.232;43.854;2023-05-16T04:19:50;101612.00;;;13.80;56.09
73453;BME280;61687;56.232;43.854;2023-05-16T04:22:16;101612.25;;;13.91;55.11
73453;BME280;61687;56.232;43.854;2023-05-16T04:24:42;101612.75;;;13.97;55.50
73453;BME280;61687;56.232;43.854;2023-05-16T04:27:08;101614.00;;;13.99;55.55
73453;BME280;61687;56.232;43.854;2023-05-16T04:29:34;101605.00;;;14.02;55.06
73453;BME280;61687;56.232;43.854;2023-05-16T04:32:01;101607.91;;;14.10;54.48
73453;BME280;61687;56.232;43.854;2023-05-16T04:34:27;101605.53;;;14.08;53.70
73453;BME280;61687;56.232;43.854;2023-05-16T04:36:54;101601.56;;;14.25;53.76
73453;BME280;61687;56.232;43.854;2023-05-16T04:39:20;101594.75;;;14.39;52.91
73453;BME280;61687;56.232;43.854;2023-05-16T04:41:46;101602.22;;;14.58;52.64
73453;BME280;61687;56.232;43.854;2023-05-16T04:44:13;101587.59;;;14.73;52.99
73453;BME280;61687;56.232;43.854;2023-05-16T04:46:39;101590.25;;;14.90;52.00
73453;BME280;61687;56.232;43.854;2023-05-16T04:49:06;101586.16;;;15.03;51.31
73453;BME280;61687;56.232;43.854;2023-05-16T04:51:33;101583.69;;;15.21;50.71
73453;BME280;61687;56.232;43.854;2023-05-16T04:54:00;101587.50;;;15.36;50.12
73453;BME280;61687;56.232;43.854;2023-05-16T04:56:26;101594.50;;;15.53;49.37
73453;BME280;61687;56.232;43.854;2023-05-16T04:58:52;101599.88;;;15.69;47.72
73453;BME280;61687;56.232;43.854;2023-05-16T05:01:19;101591.44;;;15.85;46.42
73453;BME280;61687;56.232;43.854;2023-05-16T05:03:46;101591.28;;;16.01;45.86
73453;BME280;61687;56.232;43.854;2023-05-16T05:06:12;101593.84;;;16.14;45.88
73453;BME280;61687;56.232;43.854;2023-05-16T05:08:38;101590.44;;;16.24;45.21
73453;BME280;61687;56.232;43.854;2023-05-16T05:11:04;101586.66;;;16.40;45.00
73453;BME280;61687;56.232;43.854;2023-05-16T05:13:30;101582.06;;;16.55;43.87
73453;BME280;61687;56.232;43.854;2023-05-16T05:15:56;101584.53;;;16.60;42.43
73453;BME280;61687;56.232;43.854;2023-05-16T05:18:22;101574.28;;;16.64;41.58
73453;BME280;61687;56.232;43.854;2023-05-16T05:20:49;101580.00;;;16.79;42.26
73453;BME280;61687;56.232;43.854;2023-05-16T05:23:15;101573.38;;;16.91;42.28
73453;BME280;61687;56.232;43.854;2023-05-16T05:25:41;101576.28;;;17.01;41.98
73453;BME280;61687;56.232;43.854;2023-05-16T05:28:07;101581.94;;;17.12;41.27
73453;BME280;61687;56.232;43.854;2023-05-16T05:30:33;101587.09;;;17.17;40.64
73453;BME280;61687;56.232;43.854;2023-05-16T05:32:59;101589.22;;;17.31;41.22
73453;BME280;61687;56.232;43.854;2023-05-16T05:35:25;101591.28;;;17.42;41.25
73453;BME280;61687;56.232;43.854;2023-05-16T05:37:51;101588.53;;;17.45;40.12
73453;BME280;61687;56.232;43.854;2023-05-16T05:40:17;101577.97;;;17.62;40.59
73453;BME280;61687;56.232;43.854;2023-05-16T05:42:43;101593.13;;;17.79;41.41
73453;BME280;61687;56.232;43.854;2023-05-16T05:45:10;101599.53;;;17.91;40.31
73453;BME280;61687;56.232;43.854;2023-05-16T05:47:36;101602.00;;;18.03;39.61
73453;BME280;61687;56.232;43.854;2023-05-16T05:50:02;101599.28;;;18.14;39.40
73453;BME280;61687;56.232;43.854;2023-05-16T05:52:31;101602.94;;;18.25;38.60
73453;BME280;61687;56.232;43.854;2023-05-16T05:54:57;101596.63;;;18.32;39.02
73453;BME280;61687;56.232;43.854;2023-05-16T05:57:24;101601.41;;;18.42;39.57
73453;BME280;61687;56.232;43.854;2023-05-16T05:59:50;101598.28;;;18.51;38.84
73453;BME280;61687;56.232;43.854;2023-05-16T06:02:16;101602.69;;;18.59;39.00
73453;BME280;61687;56.232;43.854;2023-05-16T06:04:42;101592.38;;;18.67;40.16
73453;BME280;61687;56.232;43.854;2023-05-16T06:07:09;101606.28;;;18.74;39.87
73453;BME280;61687;56.232;43.854;2023-05-16T06:09:35;101599.16;;;18.81;39.43
73453;BME280;61687;56.232;43.854;2023-05-16T06:12:02;101599.97;;;18.85;39.33
73453;BME280;61687;56.232;43.854;2023-05-16T06:14:28;101607.50;;;18.92;39.63
73453;BME280;61687;56.232;43.854;2023-05-16T06:16:54;101604.00;;;19.02;39.08
73453;BME280;61687;56.232;43.854;2023-05-16T06:19:21;101606.41;;;19.11;39.28
73453;BME280;61687;56.232;43.854;2023-05-16T06:21:47;101607.97;;;19.15;39.99
73453;BME280;61687;56.232;43.854;2023-05-16T06:24:13;101609.97;;;19.19;39.55
73453;BME280;61687;56.232;43.854;2023-05-16T06:26:39;101610.38;;;19.21;39.05
73453;BME280;61687;56.232;43.854;2023-05-16T06:29:05;101614.31;;;19.20;38.97
73453;BME280;61687;56.232;43.854;2023-05-16T06:31:31;101610.38;;;19.17;38.80
73453;BME280;61687;56.232;43.854;2023-05-16T06:33:57;101605.63;;;19.25;38.83
73453;BME280;61687;56.232;43.854;2023-05-16T06:36:23;101604.81;;;19.35;38.88
73453;BME280;61687;56.232;43.854;2023-05-16T06:38:49;101612.78;;;19.48;39.31
73453;BME280;61687;56.232;43.854;2023-05-16T06:41:15;101605.59;;;19.54;38.67
73453;BME280;61687;56.232;43.854;2023-05-16T06:43:41;101602.03;;;19.61;38.68
73453;BME280;61687;56.232;43.854;2023-05-16T06:46:07;101599.25;;;19.71;39.02
73453;BME280;61687;56.232;43.854;2023-05-16T06:48:33;101592.47;;;19.80;39.43
73453;BME280;61687;56.232;43.854;2023-05-16T06:50:59;101595.63;;;19.82;38.79
73453;BME280;61687;56.232;43.854;2023-05-16T06:53:25;101600.81;;;19.80;37.23
73453;BME280;61687;56.232;43.854;2023-05-16T06:55:52;101600.81;;;19.87;37.26
73453;BME280;61687;56.232;43.854;2023-05-16T06:58:17;101603.97;;;19.89;37.11
73453;BME280;61687;56.232;43.854;2023-05-16T07:00:43;101596.03;;;20.02;37.64
73453;BME280;61687;56.232;43.854;2023-05-16T07:03:10;101605.13;;;20.13;37.15
73453;BME280;61687;56.232;43.854;2023-05-16T07:05:36;101606.31;;;20.20;37.24
73453;BME280;61687;56.232;43.854;2023-05-16T07:08:02;101599.13;;;20.26;36.99
73453;BME280;61687;56.232;43.854;2023-05-16T07:10:28;101608.25;;;20.34;36.87
73453;BME280;61687;56.232;43.854;2023-05-16T07:12:53;101604.28;;;20.35;36.54
73453;BME280;61687;56.232;43.854;2023-05-16T07:15:20;101600.25;;;20.47;37.42
73453;BME280;61687;56.232;43.854;2023-05-16T07:17:46;101602.16;;;20.57;36.81
73453;BME280;61687;56.232;43.854;2023-05-16T07:20:12;101605.31;;;20.63;36.16
73453;BME280;61687;56.232;43.854;2023-05-16T07:22:39;101605.31;;;20.70;36.03
73453;BME280;61687;56.232;43.854;2023-05-16T07:25:06;101608.84;;;20.74;36.23
73453;BME280;61687;56.232;43.854;2023-05-16T07:27:40;101600.53;;;20.67;35.88
73453;BME280;61687;56.232;43.854;2023-05-16T07:30:11;101599.31;;;20.71;36.17
73453;BME280;61687;56.232;43.854;2023-05-16T07:32:38;101592.50;;;20.83;36.22
73453;BME280;61687;56.232;43.854;2023-05-16T07:35:04;101595.66;;;20.93;36.37
73453;BME280;61687;56.232;43.854;2023-05-16T07:37:31;101597.16;;;21.01;36.54
73453;BME280;61687;56.232;43.854;2023-05-16T07:39:57;101597.50;;;21.10;36.30
73453;BME280;61687;56.232;43.854;2023-05-16T07:42:23;101592.72;;;21.11;35.67
73453;BME280;61687;56.232;43.854;2023-05-16T07:44:49;101596.69;;;21.13;35.61
73453;BME280;61687;56.232;43.854;2023-05-16T07:47:15;101597.84;;;21.20;35.91
73453;BME280;61687;56.232;43.854;2023-05-16T07:49:41;101595.06;;;21.20;35.33
73453;BME280;61687;56.232;43.854;2023-05-16T07:52:07;101600.94;;;21.29;35.55
73453;BME280;61687;56.232;43.854;2023-05-16T07:54:34;101598.44;;;21.42;35.29
73453;BME280;61687;56.232;43.854;2023-05-16T07:57:01;101589.66;;;21.47;34.77
73453;BME280;61687;56.232;43.854;2023-05-16T07:59:27;101597.56;;;21.52;34.98
73453;BME280;61687;56.232;43.854;2023-05-16T08:01:53;101593.56;;;21.57;34.60
73453;BME280;61687;56.232;43.854;2023-05-16T08:04:21;101596.66;;;21.66;35.73
73453;BME280;61687;56.232;43.854;2023-05-16T08:06:47;101597.00;;;21.76;35.18
73453;BME280;61687;56.232;43.854;2023-05-16T08:09:13;101591.72;;;21.81;35.00
73453;BME280;61687;56.232;43.854;2023-05-16T08:11:39;101587.72;;;21.82;34.34
73453;BME280;61687;56.232;43.854;2023-05-16T08:14:05;101585.44;;;21.73;34.07
73453;BME280;61687;56.232;43.854;2023-05-16T08:16:31;101588.22;;;21.73;34.53
73453;BME280;61687;56.232;43.854;2023-05-16T08:18:57;101594.13;;;21.83;35.35
73453;BME280;61687;56.232;43.854;2023-05-16T08:21:23;101598.41;;;21.91;35.10
73453;BME280;61687;56.232;43.854;2023-05-16T08:23:49;101591.63;;;21.92;34.05
73453;BME280;61687;56.232;43.854;2023-05-16T08:26:16;101578.84;;;21.95;34.49
73453;BME280;61687;56.232;43.854;2023-05-16T08:28:42;101578.81;;;21.98;34.05
73453;BME280;61687;56.232;43.854;2023-05-16T08:31:08;101576.31;;;22.04;34.21
73453;BME280;61687;56.232;43.854;2023-05-16T08:33:34;101584.41;;;21.95;34.47
73453;BME280;61687;56.232;43.854;2023-05-16T08:36:00;101582.75;;;22.01;34.76
73453;BME280;61687;56.232;43.854;2023-05-16T08:38:26;101577.88;;;22.09;34.45
73453;BME280;61687;56.232;43.854;2023-05-16T08:40:52;101577.38;;;22.18;33.88
73453;BME280;61687;56.232;43.854;2023-05-16T08:43:18;101573.78;;;22.17;34.20
73453;BME280;61687;56.232;43.854;2023-05-16T08:45:45;101571.41;;;22.15;34.47
73453;BME280;61687;56.232;43.854;2023-05-16T08:48:11;101573.16;;;22.02;34.34
73453;BME280;61687;56.232;43.854;2023-05-16T08:50:38;101580.19;;;21.79;35.83
73453;BME280;61687;56.232;43.854;2023-05-16T08:53:06;101572.81;;;21.96;34.91
73453;BME280;61687;56.232;43.854;2023-05-16T08:55:34;101564.38;;;22.04;34.10
73453;BME280;61687;56.232;43.854;2023-05-16T08:58:01;101566.25;;;22.14;33.89
73453;BME280;61687;56.232;43.854;2023-05-16T09:00:28;101570.84;;;22.28;33.93
73453;BME280;61687;56.232;43.854;2023-05-16T09:02:56;101574.72;;;22.38;34.15
73453;BME280;61687;56.232;43.854;2023-05-16T09:05:22;101563.88;;;22.12;34.39
73453;BME280;61687;56.232;43.854;2023-05-16T09:07:48;101558.84;;;22.00;34.20
73453;BME280;61687;56.232;43.854;2023-05-16T09:10:15;101558.44;;;22.01;34.05
73453;BME280;61687;56.232;43.854;2023-05-16T09:12:41;101562.22;;;21.84;34.02
73453;BME280;61687;56.232;43.854;2023-05-16T09:15:09;101557.75;;;21.90;34.30
73453;BME280;61687;56.232;43.854;2023-05-16T09:17:43;101558.59;;;21.87;35.45
73453;BME280;61687;56.232;43.854;2023-05-16T09:20:14;101555.41;;;21.85;34.97
73453;BME280;61687;56.232;43.854;2023-05-16T09:22:52;101552.34;;;21.76;35.34
73453;BME280;61687;56.232;43.854;2023-05-16T09:25:20;101560.19;;;21.84;34.88
73453;BME280;61687;56.232;43.854;2023-05-16T09:27:46;101545.31;;;21.98;35.61
73453;BME280;61687;56.232;43.854;2023-05-16T09:30:14;101552.66;;;22.16;34.59
73453;BME280;61687;56.232;43.854;2023-05-16T09:32:44;101542.53;;;22.29;34.00
73453;BME280;61687;56.232;43.854;2023-05-16T09:35:15;101539.09;;;22.45;34.16
73453;BME280;61687;56.232;43.854;2023-05-16T09:37:48;101532.38;;;22.70;34.56
73453;BME280;61687;56.232;43.854;2023-05-16T09:40:14;101534.44;;;22.94;34.06
73453;BME280;61687;56.232;43.854;2023-05-16T09:42:42;101530.69;;;23.04;32.88
73453;BME280;61687;56.232;43.854;2023-05-16T09:45:12;101535.66;;;23.16;32.97
73453;BME280;61687;56.232;43.854;2023-05-16T09:47:40;101532.59;;;23.35;33.46
73453;BME280;61687;56.232;43.854;2023-05-16T09:50:15;101531.03;;;23.54;32.42
73453;BME280;61687;56.232;43.854;2023-05-16T09:52:42;101525.28;;;23.61;31.74
73453;BME280;61687;56.232;43.854;2023-05-16T09:55:09;101535.88;;;23.73;32.94
73453;BME280;61687;56.232;43.854;2023-05-16T09:57:37;101525.81;;;23.56;31.18
73453;BME280;61687;56.232;43.854;2023-05-16T10:00:09;101519.25;;;23.42;31.27
73453;BME280;61687;56.232;43.854;2023-05-16T10:02:37;101516.22;;;23.33;32.15
73453;BME280;61687;56.232;43.854;2023-05-16T10:05:06;101519.69;;;23.61;32.75
73453;BME280;61687;56.232;43.854;2023-05-16T10:07:33;101518.50;;;24.03;32.23
73453;BME280;61687;56.232;43.854;2023-05-16T10:10:06;101523.38;;;24.55;31.20
73453;BME280;61687;56.232;43.854;2023-05-16T10:12:33;101517.81;;;25.81;29.75
73453;BME280;61687;56.232;43.854;2023-05-16T10:15:03;101521.44;;;27.46;27.96
73453;BME280;61687;56.232;43.854;2023-05-16T10:17:35;101522.72;;;29.31;24.84
73453;BME280;61687;56.232;43.854;2023-05-16T10:20:06;101510.19;;;30.89;23.84
73453;BME280;61687;56.232;43.854;2023-05-16T10:22:35;101516.03;;;32.24;22.09
73453;BME280;61687;56.232;43.854;2023-05-16T10:27:38;101494.91;;;33.23;20.75
73453;BME280;61687;56.232;43.854;2023-05-16T10:30:05;101501.03;;;34.28;19.79
73453;BME280;61687;56.232;43.854;2023-05-16T10:32:35;101504.41;;;35.42;19.00
73453;BME280;61687;56.232;43.854;2023-05-16T10:35:03;101501.34;;;36.08;18.93
73453;BME280;61687;56.232;43.854;2023-05-16T10:37:31;101497.44;;;36.00;17.27
73453;BME280;61687;56.232;43.854;2023-05-16T10:39:59;101501.09;;;36.12;17.38
73453;BME280;61687;56.232;43.854;2023-05-16T10:42:25;101497.50;;;36.81;16.72
73453;BME280;61687;56.232;43.854;2023-05-16T10:45:08;101494.88;;;37.01;16.91
73453;BME280;61687;56.232;43.854;2023-05-16T10:47:40;101492.25;;;36.15;16.91
73453;BME280;61687;56.232;43.854;2023-05-16T10:50:06;101484.22;;;34.73;18.08
73453;BME280;61687;56.232;43.854;2023-05-16T10:52:33;101480.31;;;33.36;19.63
73453;BME280;61687;56.232;43.854;2023-05-16T10:55:02;101488.13;;;31.87;20.08
73453;BME280;61687;56.232;43.854;2023-05-16T10:57:31;101481.47;;;30.57;21.00
73453;BME280;61687;56.232;43.854;2023-05-16T10:59:58;101486.16;;;29.74;22.69
73453;BME280;61687;56.232;43.854;2023-05-16T11:02:31;101488.75;;;28.56;23.54
73453;BME280;61687;56.232;43.854;2023-05-16T11:05:00;101484.94;;;28.41;23.89
73453;BME280;61687;56.232;43.854;2023-05-16T11:07:34;101484.00;;;28.44;24.91
73453;BME280;61687;56.232;43.854;2023-05-16T11:10:14;101470.13;;;28.78;24.18
73453;BME280;61687;56.232;43.854;2023-05-16T11:12:48;101476.59;;;28.97;24.18
73453;BME280;61687;56.232;43.854;2023-05-16T11:17:43;101469.25;;;29.55;23.95
73453;BME280;61687;56.232;43.854;2023-05-16T11:20:28;101471.19;;;30.02;22.98
73453;BME280;61687;56.232;43.854;2023-05-16T11:23:21;101467.72;;;30.07;22.97
73453;BME280;61687;56.232;43.854;2023-05-16T11:25:51;101462.44;;;30.58;22.77
73453;BME280;61687;56.232;43.854;2023-05-16T11:28:19;101464.91;;;30.89;22.16
73453;BME280;61687;56.232;43.854;2023-05-16T11:30:50;101464.53;;;30.48;22.10
73453;BME280;61687;56.232;43.854;2023-05-16T11:33:17;101453.44;;;29.92;22.51
73453;BME280;61687;56.232;43.854;2023-05-16T11:36:01;101467.72;;;31.13;20.73
73453;BME280;61687;56.232;43.854;2023-05-16T11:38:31;101465.34;;;32.68;19.55
73453;BME280;61687;56.232;43.854;2023-05-16T11:41:03;101466.03;;;33.51;19.28
73453;BME280;61687;56.232;43.854;2023-05-16T11:43:42;101456.25;;;32.43;20.10
73453;BME280;61687;56.232;43.854;2023-05-16T11:46:12;101457.66;;;31.12;21.49
73453;BME280;61687;56.232;43.854;2023-05-16T11:48:38;101459.72;;;30.05;23.22
73453;BME280;61687;56.232;43.854;2023-05-16T11:51:05;101458.75;;;29.28;23.97
73453;BME280;61687;56.232;43.854;2023-05-16T11:53:32;101456.81;;;28.60;25.07
73453;BME280;61687;56.232;43.854;2023-05-16T11:55:59;101465.84;;;28.04;24.87
73453;BME280;61687;56.232;43.854;2023-05-16T11:58:27;101463.97;;;27.56;25.77
73453;BME280;61687;56.232;43.854;2023-05-16T12:00:53;101466.84;;;27.43;26.04
73453;BME280;61687;56.232;43.854;2023-05-16T12:03:20;101450.97;;;28.54;24.74
73453;BME280;61687;56.232;43.854;2023-05-16T12:05:52;101447.16;;;29.26;24.24
73453;BME280;61687;56.232;43.854;2023-05-16T12:08:19;101445.84;;;29.64;23.50
73453;BME280;61687;56.232;43.854;2023-05-16T12:10:51;101442.88;;;30.11;23.20
73453;BME280;61687;56.232;43.854;2023-05-16T12:13:19;101440.63;;;30.24;22.46
73453;BME280;61687;56.232;43.854;2023-05-16T12:15:47;101441.03;;;30.08;22.09
73453;BME280;61687;56.232;43.854;2023-05-16T12:18:14;101441.31;;;29.58;22.72
73453;BME280;61687;56.232;43.854;2023-05-16T12:20:42;101439.88;;;28.69;24.29
73453;BME280;61687;56.232;43.854;2023-05-16T12:23:12;101437.69;;;28.13;25.46
73453;BME280;61687;56.232;43.854;2023-05-16T12:25:43;101442.03;;;27.74;25.19
73453;BME280;61687;56.232;43.854;2023-05-16T12:28:12;101445.44;;;27.46;25.58
73453;BME280;61687;56.232;43.854;2023-05-16T12:30:43;101441.44;;;27.12;26.60
73453;BME280;61687;56.232;43.854;2023-05-16T12:33:11;101441.53;;;26.86;26.05
73453;BME280;61687;56.232;43.854;2023-05-16T12:35:43;101439.84;;;26.63;26.34
73453;BME280;61687;56.232;43.854;2023-05-16T12:38:11;101438.78;;;26.47;26.87
73453;BME280;61687;56.232;43.854;2023-05-16T12:40:39;101439.13;;;26.23;26.88
73453;BME280;61687;56.232;43.854;2023-05-16T12:43:32;101435.28;;;26.04;27.46
73453;BME280;61687;56.232;43.854;2023-05-16T12:45:58;101432.03;;;26.45;26.99
73453;BME280;61687;56.232;43.854;2023-05-16T12:48:31;101426.91;;;28.81;24.33
73453;BME280;61687;56.232;43.854;2023-05-16T12:51:16;101418.53;;;31.26;21.20
73453;BME280;61687;56.232;43.854;2023-05-16T12:53:45;101420.19;;;33.11;19.56
73453;BME280;61687;56.232;43.854;2023-05-16T12:56:13;101422.06;;;34.66;18.56
73453;BME280;61687;56.232;43.854;2023-05-16T12:58:41;101414.88;;;34.76;18.73
73453;BME280;61687;56.232;43.854;2023-05-16T13:01:07;101418.41;;;35.60;17.48
73453;BME280;61687;56.232;43.854;2023-05-16T13:03:40;101413.22;;;36.63;17.21
73453;BME280;61687;56.232;43.854;2023-05-16T13:06:09;101411.59;;;37.58;15.78